Time;durP1;ratioP1;P1;durP2;ratioP2;P2;SDS_P1;SDS_P2;PMS_P1;PMS_P2;Temp;Humidity;BMP_temperature;BMP_pressure;BME280_temperature;BME280_humidity;BME280_pressure;Samples;Min_cycle;Max_cycle;Signal;HPM_P1;HPM_P2
2021/07/30 00:02:15;;;;;;;;;;;;;;;22.97;28.24;97540.47;5021609;28;1191;-84
2021/07/30 00:04:41;;;;;;;;;;;;;;;22.81;28.46;97538.63;5022495;28;920;-84
2021/07/30 00:07:06;;;;;;;;;;;;;;;22.74;28.73;97539.69;5022349;28;877;-84
2021/07/30 00:09:32;;;;;;;;;;;;;;;22.74;28.60;97534.03;5022515;28;655;-84
2021/07/30 00:11:57;;;;;;;;;;;;;;;22.76;28.74;97533.56;5005907;28;1157;-84
2021/07/30 00:14:23;;;;;;;;;;;;;;;22.68;28.63;97530.19;5022529;28;588;-84
2021/07/30 00:16:48;;;;;;;;;;;;;;;22.65;29.18;97525.47;5022177;28;1176;-84
2021/07/30 00:19:14;;;;;;;;;;;;;;;22.56;28.97;97533.91;5005077;28;1967;-84
2021/07/30 00:21:39;;;;;;;;;;;;;;;22.74;28.59;97528.34;5007073;28;1281;-85
2021/07/30 00:24:05;;;;;;;;;;;;;;;22.75;28.59;97526.31;5022215;28;787;-84
2021/07/30 00:26:30;;;;;;;;;;;;;;;22.90;28.60;97523.72;5022974;28;867;-85
2021/07/30 00:28:55;;;;;;;;;;;;;;;22.77;28.72;97518.13;5005696;28;956;-85
2021/07/30 00:31:21;;;;;;;;;;;;;;;22.66;28.71;97524.19;5022703;28;1386;-85
2021/07/30 00:33:46;;;;;;;;;;;;;;;22.74;28.65;97528.34;5022891;28;854;-85
2021/07/30 00:36:12;;;;;;;;;;;;;;;22.72;28.71;97519.50;5023602;28;857;-85
2021/07/30 00:38:37;;;;;;;;;;;;;;;22.70;28.65;97516.34;5006151;28;1469;-84
2021/07/30 00:41:03;;;;;;;;;;;;;;;22.74;28.83;97510.53;5025175;28;1898;-85
2021/07/30 00:43:28;;;;;;;;;;;;;;;22.71;28.96;97517.94;5026201;28;936;-84
2021/07/30 00:45:55;;;;;;;;;;;;;;;22.70;28.90;97502.19;5010466;28;1509;-84
2021/07/30 00:48:20;;;;;;;;;;;;;;;22.79;28.83;97496.53;5026695;28;927;-84
2021/07/30 00:50:46;;;;;;;;;;;;;;;22.81;28.71;97505.38;5026455;28;999;-83
2021/07/30 00:53:12;;;;;;;;;;;;;;;22.72;29.05;97513.84;5025357;28;664;-82
2021/07/30 00:55:37;;;;;;;;;;;;;;;22.70;28.67;97509.91;5009616;28;697;-83
2021/07/30 00:58:03;;;;;;;;;;;;;;;22.72;28.78;97505.31;5009220;28;690;-83
2021/07/30 01:00:28;;;;;;;;;;;;;;;22.75;28.64;97506.47;5025549;28;1883;-84
2021/07/30 01:02:54;;;;;;;;;;;;;;;22.63;28.95;97496.75;5025506;28;1032;-84
2021/07/30 01:05:19;;;;;;;;;;;;;;;22.40;29.14;97506.56;5026401;28;917;-85
2021/07/30 01:07:45;;;;;;;;;;;;;;;22.53;28.98;97507.25;5009203;28;1180;-84
2021/07/30 01:10:10;;;;;;;;;;;;;;;22.66;29.12;97510.03;5009610;28;683;-84
2021/07/30 01:12:36;;;;;;;;;;;;;;;22.74;28.91;97502.84;5027192;28;722;-85
2021/07/30 01:15:01;;;;;;;;;;;;;;;22.74;28.62;97500.00;5009176;28;1514;-85
2021/07/30 01:17:27;;;;;;;;;;;;;;;22.65;28.96;97497.09;5025351;28;1193;-83
2021/07/30 01:19:52;;;;;;;;;;;;;;;22.70;28.94;97499.34;5008546;28;1959;-84
2021/07/30 01:22:29;;;;;;;;;;;;;;;22.70;29.00;97492.88;5025857;28;655;-84
2021/07/30 01:24:55;;;;;;;;;;;;;;;22.74;28.92;97494.31;5024756;28;627;-84
2021/07/30 01:27:20;;;;;;;;;;;;;;;22.82;28.82;97489.94;5025382;28;690;-84
2021/07/30 01:29:46;;;;;;;;;;;;;;;22.85;28.75;97489.00;5024534;28;859;-84
2021/07/30 01:32:12;;;;;;;;;;;;;;;22.72;29.05;97490.34;5040496;28;940;-84
2021/07/30 01:34:37;;;;;;;;;;;;;;;22.83;28.65;97487.88;5024965;28;920;-84
2021/07/30 01:37:03;;;;;;;;;;;;;;;22.76;28.62;97491.00;5008797;28;707;-84
2021/07/30 01:39:28;;;;;;;;;;;;;;;22.67;29.00;97486.06;5024679;28;1894;-84
2021/07/30 01:41:53;;;;;;;;;;;;;;;22.70;28.75;97488.00;5008647;28;818;-84
2021/07/30 01:44:19;;;;;;;;;;;;;;;22.63;28.75;97479.75;5024351;28;1053;-84
2021/07/30 01:46:46;;;;;;;;;;;;;;;22.69;28.84;97480.75;5024916;28;1286;-84
2021/07/30 01:49:11;;;;;;;;;;;;;;;22.69;28.52;97492.09;5008073;28;942;-84
2021/07/30 01:51:37;;;;;;;;;;;;;;;22.62;28.89;97486.69;5040665;28;945;-84
2021/07/30 01:54:02;;;;;;;;;;;;;;;22.62;28.90;97493.13;5024135;28;759;-84
2021/07/30 01:56:28;;;;;;;;;;;;;;;22.79;28.43;97479.50;5024804;28;862;-84
2021/07/30 01:58:53;;;;;;;;;;;;;;;22.71;28.70;97478.22;5008202;28;940;-85
2021/07/30 02:01:19;;;;;;;;;;;;;;;22.70;28.75;97482.31;5025061;28;1962;-84
2021/07/30 02:03:46;;;;;;;;;;;;;;;22.75;28.64;97478.88;5025699;28;982;-84
2021/07/30 02:06:12;;;;;;;;;;;;;;;22.77;28.32;97482.03;5025201;28;600;-84
2021/07/30 02:08:37;;;;;;;;;;;;;;;22.71;28.48;97480.28;5024363;28;742;-84
2021/07/30 02:11:07;;;;;;;;;;;;;;;22.53;28.77;97478.91;5008647;28;787;-84
2021/07/30 02:16:16;;;;;;;;;;;;;;;22.69;28.44;97474.25;5010697;28;1307;-84
2021/07/30 02:18:41;;;;;;;;;;;;;;;22.67;28.73;97471.09;5024048;28;1176;-83
2021/07/30 02:21:07;;;;;;;;;;;;;;;22.70;28.73;97470.97;5025211;28;1906;-85
2021/07/30 02:23:32;;;;;;;;;;;;;;;22.66;28.80;97473.16;5024635;28;888;-84
2021/07/30 02:25:58;;;;;;;;;;;;;;;22.77;28.54;97478.41;5025221;28;826;-84
2021/07/30 02:28:23;;;;;;;;;;;;;;;22.83;28.23;97471.66;5023903;28;858;-85
2021/07/30 02:30:49;;;;;;;;;;;;;;;22.79;28.50;97488.03;5008833;28;872;-85
2021/07/30 02:33:14;;;;;;;;;;;;;;;22.69;28.51;97482.78;4991956;28;1191;-84
2021/07/30 02:35:40;;;;;;;;;;;;;;;22.61;28.69;97485.91;5025567;28;623;-83
2021/07/30 02:38:05;;;;;;;;;;;;;;;22.68;28.58;97489.69;5024235;28;726;-85
2021/07/30 02:40:30;;;;;;;;;;;;;;;22.56;28.69;97482.88;4991577;28;1879;-84
2021/07/30 02:42:56;;;;;;;;;;;;;;;22.53;28.74;97493.09;5007068;28;952;-82
2021/07/30 02:45:21;;;;;;;;;;;;;;;22.70;28.71;97499.34;5005635;28;1208;-83
2021/07/30 02:47:47;;;;;;;;;;;;;;;22.75;28.73;97489.44;5021683;28;847;-83
2021/07/30 02:50:12;;;;;;;;;;;;;;;22.60;28.75;97483.53;5021926;28;663;-83
2021/07/30 02:52:38;;;;;;;;;;;;;;;22.75;28.38;97480.94;5022651;28;738;-83
2021/07/30 02:55:03;;;;;;;;;;;;;;;22.73;28.71;97487.03;5021707;28;823;-83
2021/07/30 02:57:29;;;;;;;;;;;;;;;22.68;28.44;97490.50;5021972;28;1361;-83
2021/07/30 02:59:54;;;;;;;;;;;;;;;22.71;28.38;97494.47;5021032;28;1899;-83
2021/07/30 03:02:20;;;;;;;;;;;;;;;22.82;28.41;97495.59;5005778;28;1025;-83
2021/07/30 03:04:45;;;;;;;;;;;;;;;22.78;28.42;97506.28;5021987;28;631;-83
2021/07/30 03:07:11;;;;;;;;;;;;;;;22.65;28.50;97502.78;5005668;28;1240;-83
2021/07/30 03:09:36;;;;;;;;;;;;;;;22.76;28.54;97505.19;5021846;28;619;-83
2021/07/30 03:12:02;;;;;;;;;;;;;;;22.72;28.46;97518.72;5021367;28;1028;-83
2021/07/30 03:14:27;;;;;;;;;;;;;;;22.78;28.62;97508.34;5020974;28;963;-83
2021/07/30 03:16:52;;;;;;;;;;;;;;;22.77;28.28;97533.09;5005392;28;1275;-83
2021/07/30 03:19:18;;;;;;;;;;;;;;;22.69;28.77;97540.31;5021180;28;1976;-83
2021/07/30 03:21:43;;;;;;;;;;;;;;;22.64;28.65;97535.22;5022374;28;761;-83
2021/07/30 03:24:09;;;;;;;;;;;;;;;22.75;28.69;97529.16;5021122;28;825;-83
2021/07/30 03:26:34;;;;;;;;;;;;;;;22.60;28.54;97524.00;5004920;28;1357;-83
2021/07/30 03:29:00;;;;;;;;;;;;;;;22.62;28.73;97515.81;5021321;28;848;-84
2021/07/30 03:31:25;;;;;;;;;;;;;;;22.59;28.65;97515.97;5021020;28;823;-83
2021/07/30 03:33:51;;;;;;;;;;;;;;;22.61;28.56;97510.63;5021527;28;674;-82
2021/07/30 03:36:16;;;;;;;;;;;;;;;22.56;28.53;97516.91;5022085;28;673;-83
2021/07/30 03:38:41;;;;;;;;;;;;;;;22.65;28.36;97514.13;5004173;28;751;-83
2021/07/30 03:41:07;;;;;;;;;;;;;;;22.56;28.70;97514.84;5021811;28;1910;-82
2021/07/30 03:43:32;;;;;;;;;;;;;;;22.54;28.72;97502.41;5020405;28;962;-82
2021/07/30 03:45:58;;;;;;;;;;;;;;;22.67;28.56;97494.59;5021981;28;920;-83
2021/07/30 03:48:23;;;;;;;;;;;;;;;22.62;28.29;97503.69;5020470;28;706;-82
2021/07/30 03:50:49;;;;;;;;;;;;;;;22.57;28.50;97524.13;5005185;28;1176;-83
2021/07/30 03:53:39;;;;;;;;;;;;;;;22.74;28.44;97522.69;5020650;28;643;-83
2021/07/30 03:56:12;;;;;;;;;;;;;;;22.58;28.56;97525.72;5020589;28;1079;-83
2021/07/30 03:58:38;;;;;;;;;;;;;;;22.54;28.49;97525.88;5038993;28;1208;-82
2021/07/30 04:01:08;;;;;;;;;;;;;;;22.55;28.73;97521.78;5040503;28;1895;-82
2021/07/30 04:03:33;;;;;;;;;;;;;;;22.64;28.67;97512.53;5039603;28;1139;-82
2021/07/30 04:06:00;;;;;;;;;;;;;;;22.50;28.97;97513.88;5040650;28;841;-82
2021/07/30 04:08:26;;;;;;;;;;;;;;;22.59;28.82;97522.44;5040693;28;922;-83
2021/07/30 04:10:51;;;;;;;;;;;;;;;22.48;28.91;97515.56;5040329;28;848;-80
2021/07/30 04:13:16;;;;;;;;;;;;;;;22.61;28.69;97521.97;5039820;28;1039;-80
2021/07/30 04:15:42;;;;;;;;;;;;;;;22.77;28.62;97510.41;5038835;28;1150;-80
2021/07/30 04:18:07;;;;;;;;;;;;;;;22.68;28.47;97518.84;5039761;28;1038;-79
2021/07/30 04:20:33;;;;;;;;;;;;;;;22.75;28.44;97512.91;5039775;28;1910;-80
2021/07/30 04:22:58;;;;;;;;;;;;;;;22.67;28.47;97511.59;5039542;28;1088;-80
2021/07/30 04:25:24;;;;;;;;;;;;;;;22.75;28.59;97509.28;5039675;28;826;-80
2021/07/30 04:27:49;;;;;;;;;;;;;;;22.76;28.36;97505.97;5039770;28;936;-80
2021/07/30 04:30:15;;;;;;;;;;;;;;;22.60;28.63;97512.69;5039750;28;666;-80
2021/07/30 04:32:40;;;;;;;;;;;;;;;22.60;28.82;97506.22;5039702;28;654;-79
2021/07/30 04:35:06;;;;;;;;;;;;;;;22.70;28.56;97505.00;5039827;28;651;-80
2021/07/30 04:37:31;;;;;;;;;;;;;;;22.63;28.59;97511.72;5039738;28;922;-80
2021/07/30 04:39:56;;;;;;;;;;;;;;;22.68;28.48;97513.19;5038817;28;1894;-80
2021/07/30 04:42:22;;;;;;;;;;;;;;;22.58;28.64;97514.38;5039578;28;1059;-80
2021/07/30 04:44:47;;;;;;;;;;;;;;;22.47;28.82;97514.00;5039026;28;671;-80
2021/07/30 04:47:14;;;;;;;;;;;;;;;22.52;28.83;97516.22;5039924;28;638;-79
2021/07/30 04:49:40;;;;;;;;;;;;;;;22.62;28.68;97515.81;5039575;28;638;-80
2021/07/30 04:52:05;;;;;;;;;;;;;;;22.67;28.76;97520.09;5039286;28;901;-79
2021/07/30 04:54:30;;;;;;;;;;;;;;;22.53;28.84;97514.97;5039021;28;822;-79
2021/07/30 04:56:56;;;;;;;;;;;;;;;22.54;29.11;97519.41;5039502;28;826;-79
2021/07/30 04:59:21;;;;;;;;;;;;;;;22.54;28.91;97513.75;5039540;28;1970;-80
2021/07/30 05:01:47;;;;;;;;;;;;;;;22.64;28.82;97518.22;5038776;28;690;-80
2021/07/30 05:04:12;;;;;;;;;;;;;;;22.60;29.21;97534.56;5039562;28;564;-80
2021/07/30 05:06:38;;;;;;;;;;;;;;;22.54;29.20;97525.09;5038799;28;1120;-80
2021/07/30 05:09:03;;;;;;;;;;;;;;;22.60;29.15;97523.22;5039116;28;918;-79
2021/07/30 05:11:29;;;;;;;;;;;;;;;22.69;28.81;97528.97;5005932;28;1267;-79
2021/07/30 05:13:54;;;;;;;;;;;;;;;22.55;29.26;97538.00;5039248;28;675;-79
2021/07/30 05:16:20;;;;;;;;;;;;;;;22.56;28.91;97545.25;5038725;28;1115;-79
2021/07/30 05:18:45;;;;;;;;;;;;;;;22.71;28.83;97546.28;5038967;28;1057;-78
2021/07/30 05:21:14;;;;;;;;;;;;;;;22.53;29.21;97551.84;5038109;28;1906;-79
2021/07/30 05:23:39;;;;;;;;;;;;;;;22.61;29.04;97562.44;5038574;28;842;-79
2021/07/30 05:26:05;;;;;;;;;;;;;;;22.72;29.06;97570.56;5022066;28;1273;-79
2021/07/30 05:28:31;;;;;;;;;;;;;;;22.83;28.85;97564.47;5041804;28;1146;-79
2021/07/30 05:30:57;;;;;;;;;;;;;;;22.79;28.89;97558.94;5041971;28;564;-79
2021/07/30 05:33:24;;;;;;;;;;;;;;;22.72;29.12;97559.22;5042114;28;659;-79
2021/07/30 05:35:52;;;;;;;;;;;;;;;22.69;29.20;97554.47;5041733;28;1328;-80
2021/07/30 05:38:18;;;;;;;;;;;;;;;22.72;29.31;97559.22;5042359;28;909;-80
2021/07/30 05:40:45;;;;;;;;;;;;;;;22.76;29.32;97553.41;5042490;28;1898;-79
2021/07/30 05:43:10;;;;;;;;;;;;;;;22.69;29.20;97559.34;5042592;28;638;-80
2021/07/30 05:45:36;;;;;;;;;;;;;;;22.67;29.29;97559.81;5042236;28;715;-80
2021/07/30 05:48:01;;;;;;;;;;;;;;;22.56;29.65;97553.75;5042506;28;670;-79
2021/07/30 05:50:27;;;;;;;;;;;;;;;22.76;29.43;97537.19;5042054;28;1050;-79
2021/07/30 05:52:52;;;;;;;;;;;;;;;21.26;29.37;97324.56;5041676;28;1256;-80
2021/07/30 05:55:18;;;;;;;;;;;;;;;22.68;29.47;97541.53;5042495;28;1182;-79
2021/07/30 05:57:44;;;;;;;;;;;;;;;22.62;29.67;97549.06;5041107;28;854;-80
2021/07/30 06:00:09;;;;;;;;;;;;;;;22.53;29.77;97546.16;5042087;28;1907;-80
2021/07/30 06:02:37;;;;;;;;;;;;;;;22.58;29.72;97548.41;5042696;28;687;-79
2021/07/30 06:05:03;;;;;;;;;;;;;;;22.95;28.84;97548.63;5041971;28;1043;-79
2021/07/30 06:07:28;;;;;;;;;;;;;;;22.80;29.47;97548.41;5041817;28;876;-80
2021/07/30 06:09:54;;;;;;;;;;;;;;;22.75;29.57;97546.94;5041885;28;952;-80
2021/07/30 06:12:20;;;;;;;;;;;;;;;22.70;29.77;97550.38;5041960;28;599;-80
2021/07/30 06:14:45;;;;;;;;;;;;;;;22.64;29.79;97555.09;5042156;28;611;-80
2021/07/30 06:17:11;;;;;;;;;;;;;;;22.75;29.54;97555.47;5041784;28;987;-80
2021/07/30 06:19:36;;;;;;;;;;;;;;;22.70;29.37;97556.06;5041497;28;1902;-80
2021/07/30 06:22:02;;;;;;;;;;;;;;;22.63;29.92;97551.44;5041550;28;916;-80
2021/07/30 06:24:28;;;;;;;;;;;;;;;22.69;29.65;97553.66;5041900;28;833;-80
2021/07/30 06:26:53;;;;;;;;;;;;;;;22.53;30.21;97563.97;5041688;28;638;-79
2021/07/30 06:29:18;;;;;;;;;;;;;;;22.55;29.97;97563.53;5041623;28;651;-80
2021/07/30 06:31:44;;;;;;;;;;;;;;;22.71;30.10;97557.63;5041389;28;861;-80
2021/07/30 06:34:09;;;;;;;;;;;;;;;22.75;29.99;97552.63;5040627;28;858;-80
2021/07/30 06:36:35;;;;;;;;;;;;;;;22.75;30.12;97554.66;5041478;28;1022;-80
2021/07/30 06:39:00;;;;;;;;;;;;;;;22.76;30.02;97556.25;5041180;28;646;-80
2021/07/30 06:41:26;;;;;;;;;;;;;;;22.80;29.58;97548.41;5041569;28;1971;-80
2021/07/30 06:43:53;;;;;;;;;;;;;;;22.73;29.89;97546.59;5041438;28;638;-79
2021/07/30 06:46:18;;;;;;;;;;;;;;;22.73;29.86;97549.44;5041069;28;896;-80
2021/07/30 06:48:44;;;;;;;;;;;;;;;22.65;30.13;97551.00;5041023;28;905;-80
2021/07/30 06:51:10;;;;;;;;;;;;;;;22.73;30.05;97555.13;5041298;28;842;-79
2021/07/30 06:53:35;;;;;;;;;;;;;;;22.85;29.99;97562.78;5041270;28;670;-80
2021/07/30 06:56:11;;;;;;;;;;;;;;;22.85;29.81;97556.31;5041596;28;965;-79
2021/07/30 06:58:37;;;;;;;;;;;;;;;22.92;29.68;97560.94;5041400;28;622;-78
2021/07/30 07:01:03;;;;;;;;;;;;;;;22.79;30.07;97567.44;5040954;28;1910;-79
2021/07/30 07:03:29;;;;;;;;;;;;;;;22.78;30.03;97565.88;5040220;28;918;-80
2021/07/30 07:05:54;;;;;;;;;;;;;;;22.90;29.83;97567.09;5041221;28;849;-79
2021/07/30 07:08:20;;;;;;;;;;;;;;;22.81;30.14;97564.94;5040658;28;842;-80
2021/07/30 07:10:45;;;;;;;;;;;;;;;22.74;30.47;97562.41;5041148;28;682;-79
2021/07/30 07:13:11;;;;;;;;;;;;;;;22.70;30.37;97561.72;5041097;28;666;-80
2021/07/30 07:15:41;;;;;;;;;;;;;;;22.78;30.32;97573.59;5040913;28;1083;-80
2021/07/30 07:18:06;;;;;;;;;;;;;;;22.99;29.90;97577.66;5040733;28;1022;-79
2021/07/30 07:20:32;;;;;;;;;;;;;;;23.04;29.86;97562.88;5040897;28;1980;-78
2021/07/30 07:22:57;;;;;;;;;;;;;;;22.98;29.75;97570.41;5040963;28;710;-80
2021/07/30 07:25:23;;;;;;;;;;;;;;;23.03;29.67;97578.34;5040375;28;632;-79
2021/07/30 07:27:48;;;;;;;;;;;;;;;23.04;29.61;97585.59;5040957;28;669;-79
2021/07/30 07:30:14;;;;;;;;;;;;;;;22.99;30.07;97586.19;5040543;28;961;-79
2021/07/30 07:32:39;;;;;;;;;;;;;;;23.04;29.95;97575.00;5040582;28;853;-79
2021/07/30 07:35:05;;;;;;;;;;;;;;;23.05;30.21;97581.47;5041235;28;918;-79
2021/07/30 07:37:30;;;;;;;;;;;;;;;23.09;30.60;97582.13;5040907;28;675;-79
2021/07/30 07:39:56;;;;;;;;;;;;;;;23.07;31.34;97584.66;5041105;28;1963;-79
2021/07/30 07:42:21;;;;;;;;;;;;;;;22.92;31.79;97589.31;5040525;28;1050;-75
2021/07/30 07:44:49;;;;;;;;;;;;;;;23.14;31.46;97584.38;5040277;28;810;-78
2021/07/30 07:47:14;;;;;;;;;;;;;;;23.09;31.44;97590.66;5039911;28;1049;-78
2021/07/30 07:49:40;;;;;;;;;;;;;;;23.03;31.40;97581.97;5039901;28;703;-78
2021/07/30 07:52:05;;;;;;;;;;;;;;;22.99;31.63;97589.03;5039958;28;647;-78
2021/07/30 07:54:31;;;;;;;;;;;;;;;22.90;31.36;97580.44;5040417;28;670;-79
2021/07/30 07:56:59;;;;;;;;;;;;;;;22.92;31.36;97583.63;5039458;28;985;-79
2021/07/30 07:59:25;;;;;;;;;;;;;;;22.98;31.26;97588.22;5039882;28;1981;-79
2021/07/30 08:01:50;;;;;;;;;;;;;;;22.87;31.14;97588.63;5040206;28;947;-79
2021/07/30 08:04:16;;;;;;;;;;;;;;;22.74;31.54;97585.09;5040251;28;734;-79
2021/07/30 08:06:41;;;;;;;;;;;;;;;22.94;30.91;97586.78;5040442;28;648;-78
2021/07/30 08:09:07;;;;;;;;;;;;;;;22.85;31.12;97596.03;5040216;28;603;-79
2021/07/30 08:11:32;;;;;;;;;;;;;;;22.87;30.93;97588.63;5039783;28;968;-79
2021/07/30 08:13:57;;;;;;;;;;;;;;;22.80;31.17;97588.91;5039847;28;849;-79
2021/07/30 08:16:26;;;;;;;;;;;;;;;22.89;30.85;97591.00;5040215;28;905;-79
2021/07/30 08:18:52;;;;;;;;;;;;;;;22.93;30.58;97586.00;5040163;28;638;-79
2021/07/30 08:21:17;;;;;;;;;;;;;;;22.96;30.62;97578.63;5039373;28;1906;-79
2021/07/30 08:23:43;;;;;;;;;;;;;;;22.94;30.71;97576.22;5040064;28;647;-78
2021/07/30 08:26:08;;;;;;;;;;;;;;;22.95;30.36;97577.00;5039603;28;1084;-78
2021/07/30 08:28:34;;;;;;;;;;;;;;;22.99;30.50;97577.66;5039766;28;865;-79
2021/07/30 08:30:59;;;;;;;;;;;;;;;22.93;30.84;97574.66;5039894;28;919;-78
2021/07/30 08:33:25;;;;;;;;;;;;;;;22.91;30.37;97565.81;5040027;28;655;-79
2021/07/30 08:35:50;;;;;;;;;;;;;;;22.77;30.75;97572.78;5040118;28;638;-79
2021/07/30 08:38:16;;;;;;;;;;;;;;;22.87;30.57;97571.59;5039653;28;837;-79
2021/07/30 08:40:41;;;;;;;;;;;;;;;22.91;30.37;97565.81;5039862;28;1898;-78
2021/07/30 08:43:11;;;;;;;;;;;;;;;22.96;30.78;97561.59;5039790;28;989;-79
2021/07/30 08:45:37;;;;;;;;;;;;;;;22.96;30.38;97567.28;5039340;28;710;-79
2021/07/30 08:48:02;;;;;;;;;;;;;;;22.92;30.56;97563.78;5036804;28;757;-79
2021/07/30 08:50:28;;;;;;;;;;;;;;;22.91;30.69;97565.03;5039781;28;642;-79
2021/07/30 08:52:56;;;;;;;;;;;;;;;22.94;30.39;97569.75;5039880;28;599;-79
2021/07/30 08:55:27;;;;;;;;;;;;;;;22.91;30.92;97565.03;5038863;28;975;-79
2021/07/30 08:57:53;;;;;;;;;;;;;;;22.93;30.76;97562.50;5038736;28;884;-79
2021/07/30 09:00:19;;;;;;;;;;;;;;;22.95;30.61;97560.81;5039785;28;1898;-79
2021/07/30 09:02:44;;;;;;;;;;;;;;;22.82;30.94;97558.00;5042419;28;741;-79
2021/07/30 09:05:28;;;;;;;;;;;;;;;22.94;30.84;97547.06;5043440;28;754;-79
2021/07/30 09:07:57;;;;;;;;;;;;;;;22.89;30.78;97559.81;5043447;28;634;-79
2021/07/30 09:10:26;;;;;;;;;;;;;;;22.77;31.03;97555.00;5043184;28;853;-79
2021/07/30 09:12:52;;;;;;;;;;;;;;;22.79;31.15;97547.59;5043041;28;864;-79
2021/07/30 09:15:21;;;;;;;;;;;;;;;22.83;31.08;97553.91;5042486;28;1290;-79
2021/07/30 09:17:47;;;;;;;;;;;;;;;22.92;30.95;97549.59;5042665;28;978;-79
2021/07/30 09:20:12;;;;;;;;;;;;;;;22.90;31.10;97552.09;5043111;28;1967;-79
2021/07/30 09:22:50;;;;;;;;;;;;;;;23.06;30.50;97543.34;5043312;28;658;-79
2021/07/30 09:25:31;;;;;;;;;;;;;;;22.99;30.95;97560.66;5042858;28;977;-79
2021/07/30 09:28:06;;;;;;;;;;;;;;;22.88;31.12;97550.50;5042872;28;856;-79
2021/07/30 09:30:32;;;;;;;;;;;;;;;22.95;30.90;97545.81;5042477;28;650;-79
2021/07/30 09:32:58;;;;;;;;;;;;;;;22.91;31.05;97548.00;5043036;28;690;-79
2021/07/30 09:35:23;;;;;;;;;;;;;;;22.98;30.76;97542.03;5042944;28;712;-79
2021/07/30 09:38:07;;;;;;;;;;;;;;;23.12;30.78;97550.00;5042861;28;667;-79
2021/07/30 09:40:33;;;;;;;;;;;;;;;23.03;31.01;97544.28;5042414;28;1899;-79
2021/07/30 09:43:01;;;;;;;;;;;;;;;22.96;31.09;97545.34;5042331;28;899;-79
2021/07/30 09:45:32;;;;;;;;;;;;;;;22.91;31.16;97537.44;5042412;28;659;-79
2021/07/30 09:47:58;;;;;;;;;;;;;;;22.88;31.04;97544.84;5042726;28;694;-80
2021/07/30 09:50:23;;;;;;;;;;;;;;;23.05;30.71;97544.59;5042048;28;679;-79
2021/07/30 09:52:50;;;;;;;;;;;;;;;22.97;30.88;97546.16;5041849;28;872;-79
2021/07/30 09:55:17;;;;;;;;;;;;;;;22.98;31.23;97536.38;5042341;28;878;-79
2021/07/30 09:57:43;;;;;;;;;;;;;;;23.04;30.88;97535.28;5041550;28;952;-78
2021/07/30 10:00:09;;;;;;;;;;;;;;;22.97;30.84;97529.13;5041191;28;1902;-79
2021/07/30 10:02:35;;;;;;;;;;;;;;;22.91;31.06;97531.00;5041777;28;733;-79
2021/07/30 10:05:01;;;;;;;;;;;;;;;22.91;31.36;97525.31;5041816;28;626;-79
2021/07/30 10:07:27;;;;;;;;;;;;;;;22.93;31.29;97528.47;5042436;28;664;-79
2021/07/30 10:12:28;;;;;;;;;;;;;;;23.02;31.06;97525.69;5041900;28;877;-78
2021/07/30 10:14:54;;;;;;;;;;;;;;;23.04;31.20;97523.16;5041191;28;944;-79
2021/07/30 10:17:27;;;;;;;;;;;;;;;22.99;31.07;97518.09;5041509;28;1215;-79
2021/07/30 10:19:53;;;;;;;;;;;;;;;22.99;31.30;97523.75;5041989;28;1971;-78
2021/07/30 10:22:18;;;;;;;;;;;;;;;22.98;31.36;97517.31;5041425;28;682;-79
2021/07/30 10:24:45;;;;;;;;;;;;;;;22.90;31.38;97512.38;5041526;28;643;-79
2021/07/30 10:27:11;;;;;;;;;;;;;;;22.94;31.09;97515.84;5040499;28;890;-78
2021/07/30 10:29:59;;;;;;;;;;;;;;;22.91;31.44;97514.75;5040975;28;850;-78
2021/07/30 10:32:43;;;;;;;;;;;;;;;22.97;31.23;97512.09;5033962;28;972;-79
2021/07/30 10:35:09;;;;;;;;;;;;;;;22.96;31.31;97502.81;5041827;28;871;-78
2021/07/30 10:37:35;;;;;;;;;;;;;;;22.96;31.42;97507.69;5041757;28;730;-78
2021/07/30 10:40:13;;;;;;;;;;;;;;;22.93;31.48;97517.91;5041819;28;1959;-79
2021/07/30 10:42:57;;;;;;;;;;;;;;;22.95;31.51;97508.91;5041395;28;1027;-79
2021/07/30 10:45:23;;;;;;;;;;;;;;;23.01;31.08;97507.09;5024117;28;1191;-78
2021/07/30 10:47:57;;;;;;;;;;;;;;;22.97;31.38;97512.09;5041489;28;650;-79
2021/07/30 10:50:42;;;;;;;;;;;;;;;22.96;31.27;97511.31;5040737;28;1226;-77
2021/07/30 10:53:26;;;;;;;;;;;;;;;22.97;31.49;97506.44;5041423;28;701;-77
2021/07/30 10:55:52;;;;;;;;;;;;;;;22.96;31.60;97504.84;5040403;28;1084;-78
2021/07/30 10:58:17;;;;;;;;;;;;;;;22.90;31.53;97501.00;5035107;28;1071;-78
2021/07/30 11:00:55;;;;;;;;;;;;;;;22.91;31.76;97509.09;5031305;28;1898;-78
2021/07/30 11:03:20;;;;;;;;;;;;;;;22.97;31.55;97500.75;5037306;28;1266;-79
2021/07/30 11:06:07;;;;;;;;;;;;;;;23.05;31.13;97508.53;5026892;28;1186;-79
2021/07/30 11:08:52;;;;;;;;;;;;;;;22.91;31.59;97499.78;5031792;28;1139;-77
2021/07/30 11:11:36;;;;;;;;;;;;;;;22.88;31.72;97507.94;5031622;28;1123;-79
2021/07/30 11:14:08;;;;;;;;;;;;;;;23.06;31.23;97510.09;5032081;28;1218;-78
2021/07/30 11:16:34;;;;;;;;;;;;;;;23.06;31.63;97509.31;5030118;28;1268;-79
2021/07/30 11:19:02;;;;;;;;;;;;;;;22.95;31.42;97503.25;5031846;28;1238;-79
2021/07/30 11:21:29;;;;;;;;;;;;;;;23.08;31.18;97501.09;5034406;28;1987;-78
2021/07/30 11:23:55;;;;;;;;;;;;;;;23.08;31.25;97495.44;5030432;28;1237;-79
2021/07/30 11:26:20;;;;;;;;;;;;;;;23.06;31.26;97495.13;5036320;28;1195;-79
2021/07/30 11:28:55;;;;;;;;;;;;;;;22.99;31.50;97498.22;5030863;28;1237;-77
2021/07/30 11:31:20;;;;;;;;;;;;;;;22.95;31.69;97508.91;5035803;28;1251;-79
2021/07/30 11:33:46;;;;;;;;;;;;;;;22.91;31.80;97491.28;5037125;28;1179;-79
2021/07/30 11:36:12;;;;;;;;;;;;;;;22.86;31.77;97496.25;5040804;28;662;-79
2021/07/30 11:39:03;;;;;;;;;;;;;;;23.01;31.33;97492.91;5040662;28;657;-79
2021/07/30 11:41:29;;;;;;;;;;;;;;;23.01;31.48;97487.22;5038423;28;1902;-79
2021/07/30 11:43:55;;;;;;;;;;;;;;;22.98;31.53;97480.41;5040383;28;1008;-79
2021/07/30 11:46:20;;;;;;;;;;;;;;;23.04;31.19;97483.44;5040276;28;861;-79
2021/07/30 11:48:46;;;;;;;;;;;;;;;23.13;31.29;97486.31;5040446;28;1101;-79
2021/07/30 11:51:11;;;;;;;;;;;;;;;23.04;31.34;97487.06;5040550;28;606;-79
2021/07/30 11:53:38;;;;;;;;;;;;;;;22.99;31.39;97481.19;5040574;28;649;-79
2021/07/30 11:56:03;;;;;;;;;;;;;;;22.92;31.31;97482.28;5039879;28;755;-79
2021/07/30 11:58:29;;;;;;;;;;;;;;;23.04;31.18;97477.75;5040036;28;943;-79
2021/07/30 12:01:07;;;;;;;;;;;;;;;23.07;31.42;97482.50;5039249;28;1906;-79
2021/07/30 12:03:33;;;;;;;;;;;;;;;23.11;31.23;97471.81;5040511;28;666;-79
2021/07/30 12:05:58;;;;;;;;;;;;;;;22.98;31.34;97468.28;5040290;28;607;-79
2021/07/30 12:08:24;;;;;;;;;;;;;;;22.91;31.53;97474.25;5039930;28;1257;-78
2021/07/30 12:10:49;;;;;;;;;;;;;;;22.96;31.54;97482.16;5039289;28;967;-79
2021/07/30 12:13:16;;;;;;;;;;;;;;;23.06;31.03;97478.09;5039863;28;899;-79
2021/07/30 12:15:41;;;;;;;;;;;;;;;23.00;31.56;97482.78;5039546;28;825;-79
2021/07/30 12:18:07;;;;;;;;;;;;;;;23.11;31.32;97477.47;5039497;28;1221;-78
2021/07/30 12:20:33;;;;;;;;;;;;;;;23.01;31.31;97484.38;5039979;28;1902;-79
2021/07/30 12:23:02;;;;;;;;;;;;;;;23.09;31.35;97479.97;5039451;28;669;-78
2021/07/30 12:25:46;;;;;;;;;;;;;;;23.07;31.00;97480.47;5039825;28;874;-79
2021/07/30 12:28:12;;;;;;;;;;;;;;;22.92;31.49;97475.81;5039688;28;963;-79
2021/07/30 12:30:40;;;;;;;;;;;;;;;22.98;31.33;97471.13;5040117;28;733;-79
2021/07/30 12:33:24;;;;;;;;;;;;;;;22.90;31.57;97472.66;5039987;28;666;-79
2021/07/30 12:35:49;;;;;;;;;;;;;;;23.03;31.12;97467.66;5039954;28;674;-79
2021/07/30 12:38:16;;;;;;;;;;;;;;;23.00;31.13;97466.56;5042946;28;1167;-79
2021/07/30 12:40:41;;;;;;;;;;;;;;;23.04;31.34;97461.50;5042710;28;1898;-78
2021/07/30 12:43:07;;;;;;;;;;;;;;;23.07;31.25;97465.47;5043120;28;853;-79
2021/07/30 12:45:42;;;;;;;;;;;;;;;23.00;31.26;97460.06;5043251;28;958;-79
2021/07/30 12:48:08;;;;;;;;;;;;;;;23.03;31.39;97462.00;5042888;28;868;-79
2021/07/30 12:50:37;;;;;;;;;;;;;;;23.06;31.18;97463.91;5043211;28;996;-76
2021/07/30 12:53:06;;;;;;;;;;;;;;;23.07;31.09;97454.91;5043743;28;972;-79
2021/07/30 12:55:52;;;;;;;;;;;;;;;22.96;31.22;97456.63;5042698;28;965;-78
2021/07/30 12:58:21;;;;;;;;;;;;;;;23.09;31.22;97457.28;5043571;28;955;-79
2021/07/30 13:00:50;;;;;;;;;;;;;;;23.08;31.23;97461.38;5043508;28;1967;-79
2021/07/30 13:03:16;;;;;;;;;;;;;;;23.02;31.07;97460.41;5043162;28;1179;-79
2021/07/30 13:05:41;;;;;;;;;;;;;;;23.13;31.09;97453.03;5042975;28;670;-79
2021/07/30 13:08:08;;;;;;;;;;;;;;;23.07;31.09;97442.78;5042744;28;881;-79